Time;durP1;ratioP1;P1;durP2;ratioP2;P2;SDS_P1;SDS_P2;PMS_P1;PMS_P2;Temp;Humidity;BMP_temperature;BMP_pressure;BME280_temperature;BME280_humidity;BME280_pressure;Samples;Min_cycle;Max_cycle;Signal;HPM_P1;HPM_P2
2024/04/16 00:01:49;;;;;;;0.10;0.10;;;;;;;10.34;63.46;100941.94;7360739;19;20025;-59
2024/04/16 00:04:14;;;;;;;0.10;0.10;;;;;;;10.39;62.94;100965.34;7359526;19;20487;-60
2024/04/16 00:06:41;;;;;;;0.10;0.10;;;;;;;10.42;63.32;100967.03;7359590;19;20018;-60
2024/04/16 00:09:07;;;;;;;0.10;0.10;;;;;;;10.48;63.56;100967.78;7359701;19;20003;-61
2024/04/16 00:11:32;;;;;;;0.10;0.10;;;;;;;10.33;63.09;100952.41;7358248;19;20050;-61
2024/04/16 00:13:57;;;;;;;0.10;0.10;;;;;;;10.46;63.21;100981.78;7359227;19;20097;-61
2024/04/16 00:16:23;;;;;;;0.10;0.10;;;;;;;10.44;63.28;100979.19;7358375;19;20013;-60
2024/04/16 00:18:48;;;;;;;0.10;0.10;;;;;;;10.35;63.00;100969.78;7356034;19;20017;-60
2024/04/16 00:21:14;;;;;;;0.10;0.10;;;;;;;10.39;63.76;100974.06;7356029;19;20010;-60
2024/04/16 00:23:39;;;;;;;0.10;0.10;;;;;;;10.35;63.61;100971.53;7353989;19;20006;-60
2024/04/16 00:26:05;;;;;;;0.10;0.10;;;;;;;10.32;63.35;100975.03;7360626;19;20030;-60
2024/04/16 00:28:30;;;;;;;0.10;0.10;;;;;;;10.28;63.48;100972.50;7354998;19;20011;-60
2024/04/16 00:30:55;;;;;;;0.10;0.10;;;;;;;10.26;63.58;100977.75;7359990;19;20022;-60
2024/04/16 00:33:21;;;;;;;0.10;0.10;;;;;;;10.25;64.03;100988.22;7357649;19;20015;-61
2024/04/16 00:35:46;;;;;;;0.00;0.00;;;;;;;10.21;63.82;100996.94;7361742;19;20765;-60
2024/04/16 00:38:12;;;;;;;0.10;0.10;;;;;;;10.18;63.82;100999.59;7356964;19;20478;-60
2024/04/16 00:40:38;;;;;;;0.10;0.10;;;;;;;10.17;63.84;101000.50;7356931;19;20011;-60
2024/04/16 00:43:23;;;;;;;0.10;0.10;;;;;;;10.16;62.86;101004.84;7356552;19;20093;-60
2024/04/16 00:45:52;;;;;;;0.10;0.10;;;;;;;10.12;63.78;100998.81;7353967;19;20011;-60
2024/04/16 00:48:23;;;;;;;0.05;0.05;;;;;;;10.08;63.81;101002.34;7355078;19;20030;-60
2024/04/16 00:50:49;;;;;;;0.10;0.10;;;;;;;10.06;64.03;101000.66;7360366;19;20032;-60
2024/04/16 00:53:14;;;;;;;0.10;0.10;;;;;;;10.04;64.11;100999.84;7363440;19;20007;-60
2024/04/16 00:55:40;;;;;;;0.10;0.10;;;;;;;10.01;64.23;101003.34;7369186;19;20051;-60
2024/04/16 00:58:08;;;;;;;0.10;0.10;;;;;;;9.99;64.28;100997.31;7367045;19;20493;-60
2024/04/16 01:00:33;;;;;;;0.10;0.10;;;;;;;9.97;64.20;100999.06;7366917;19;20040;-60
2024/04/16 01:02:59;;;;;;;0.10;0.10;;;;;;;9.95;64.23;101000.84;7365960;19;20023;-60
2024/04/16 01:05:25;;;;;;;0.10;0.10;;;;;;;9.85;64.10;100984.47;7360896;19;20015;-60
2024/04/16 01:07:50;;;;;;;0.10;0.10;;;;;;;9.83;64.54;100993.19;7366082;19;20993;-60
2024/04/16 01:10:16;;;;;;;0.10;0.10;;;;;;;9.88;64.08;101009.63;7359332;19;20012;-61
2024/04/16 01:12:42;;;;;;;0.08;0.08;;;;;;;9.88;63.40;101007.00;7366723;19;20014;-59
2024/04/16 01:15:08;;;;;;;0.10;0.10;;;;;;;9.68;64.41;100972.53;7359498;19;20029;-61
2024/04/16 01:17:33;;;;;;;0.10;0.10;;;;;;;9.80;64.51;101007.16;7368441;19;20104;-61
2024/04/16 01:19:59;;;;;;;0.10;0.10;;;;;;;9.79;64.56;100999.34;7355320;19;20007;-61
2024/04/16 01:22:24;;;;;;;0.10;0.10;;;;;;;9.78;64.26;101000.22;7366807;19;20595;-60
2024/04/16 01:24:50;;;;;;;0.10;0.10;;;;;;;9.70;64.36;100986.44;7363033;19;20002;-60
2024/04/16 01:27:16;;;;;;;0.10;0.10;;;;;;;9.62;64.76;100986.53;7364599;19;20017;-60
2024/04/16 01:29:41;;;;;;;0.10;0.10;;;;;;;9.75;64.54;101005.50;7365531;19;20098;-60
2024/04/16 01:32:07;;;;;;;0.10;0.10;;;;;;;9.74;64.93;101001.16;7361824;19;20013;-61
2024/04/16 01:34:32;;;;;;;0.10;0.10;;;;;;;9.76;65.10;101004.59;7363403;19;20006;-60
2024/04/16 01:36:57;;;;;;;0.10;0.10;;;;;;;9.77;64.69;101008.94;7362692;19;20590;-60
2024/04/16 01:39:23;;;;;;;0.10;0.10;;;;;;;9.74;65.33;101001.16;7365810;19;20022;-59
2024/04/16 01:41:49;;;;;;;0.10;0.10;;;;;;;9.83;63.97;101004.50;7359091;19;20556;-61
2024/04/16 01:44:15;;;;;;;0.10;0.10;;;;;;;9.87;65.39;101013.13;7364192;19;20018;-61
2024/04/16 01:46:40;;;;;;;0.00;0.00;;;;;;;9.89;65.28;101006.16;7366477;19;20013;-61
2024/04/16 01:49:06;;;;;;;0.10;0.10;;;;;;;9.92;65.25;101013.91;7358248;19;20019;-60
2024/04/16 01:51:31;;;;;;;0.10;0.10;;;;;;;9.92;65.16;101006.09;7363293;19;20044;-61
2024/04/16 01:53:56;;;;;;;0.10;0.10;;;;;;;9.83;65.19;100991.47;7364540;19;20725;-60
2024/04/16 01:56:22;;;;;;;0.10;0.10;;;;;;;9.99;65.43;101023.41;7362779;19;20007;-60
2024/04/16 01:58:47;;;;;;;0.10;0.10;;;;;;;10.02;65.78;101012.88;7360811;19;20010;-59
2024/04/16 02:01:13;;;;;;;0.10;0.10;;;;;;;10.06;65.60;101018.94;7366898;19;20082;-61
2024/04/16 02:03:38;;;;;;;0.00;0.00;;;;;;;10.10;65.31;101021.47;7363054;19;20355;-60
2024/04/16 02:06:05;;;;;;;0.10;0.10;;;;;;;10.13;65.11;101026.63;7362220;19;20332;-62
2024/04/16 02:08:33;;;;;;;0.00;0.00;;;;;;;10.17;65.40;101021.38;7366208;19;20010;-60
2024/04/16 02:10:59;;;;;;;0.10;0.10;;;;;;;10.11;65.46;101002.31;7364397;19;20007;-60
2024/04/16 02:13:25;;;;;;;0.10;0.10;;;;;;;10.04;65.48;100985.06;7366085;19;20106;-61
2024/04/16 02:15:52;;;;;;;0.10;0.10;;;;;;;10.10;65.00;100989.31;7362260;19;20406;-60
2024/04/16 02:18:17;;;;;;;0.10;0.10;;;;;;;10.20;65.12;101000.47;7365635;19;20018;-61
2024/04/16 02:20:43;;;;;;;0.10;0.10;;;;;;;10.23;64.86;101010.81;7367685;19;20340;-60
2024/04/16 02:23:09;;;;;;;0.10;0.10;;;;;;;10.22;65.08;101009.13;7366371;19;20014;-61
2024/04/16 02:25:34;;;;;;;0.10;0.10;;;;;;;10.21;64.81;101012.63;7363856;19;20010;-61
2024/04/16 02:27:59;;;;;;;0.10;0.10;;;;;;;10.14;65.14;101015.31;7366096;19;20018;-61
2024/04/16 02:30:25;;;;;;;0.10;0.10;;;;;;;10.14;64.83;101020.53;7362886;19;20002;-61
2024/04/16 02:32:50;;;;;;;0.00;0.00;;;;;;;10.03;64.65;101008.53;7362921;19;20523;-61
2024/04/16 02:35:16;;;;;;;0.10;0.10;;;;;;;10.13;64.60;101024.03;7358402;19;20010;-60
2024/04/16 02:37:42;;;;;;;0.10;0.10;;;;;;;10.12;64.86;101024.91;7366259;19;20018;-61
2024/04/16 02:40:09;;;;;;;0.08;0.08;;;;;;;10.10;65.25;101026.69;7362734;19;20765;-60
2024/04/16 02:42:37;;;;;;;0.00;0.00;;;;;;;10.10;64.81;101025.84;7333341;19;20017;-61
2024/04/16 02:45:03;;;;;;;0.05;0.05;;;;;;;10.07;65.12;101031.09;7367948;19;20014;-61
2024/04/16 02:47:28;;;;;;;0.05;0.05;;;;;;;10.07;65.21;101037.16;7363000;19;20014;-61
2024/04/16 02:49:53;;;;;;;0.10;0.10;;;;;;;10.07;65.00;101031.94;7365004;19;20378;-60
2024/04/16 02:52:19;;;;;;;0.10;0.10;;;;;;;10.05;65.50;101028.50;7354684;19;20014;-60
2024/04/16 02:54:44;;;;;;;0.10;0.10;;;;;;;10.05;65.29;101038.94;7364571;19;20358;-60
2024/04/16 02:57:10;;;;;;;0.10;0.10;;;;;;;10.04;65.38;101029.41;7362589;19;20010;-60
2024/04/16 02:59:35;;;;;;;0.03;0.03;;;;;;;10.05;65.07;101035.47;7363960;19;20018;-59
2024/04/16 03:02:00;;;;;;;0.10;0.10;;;;;;;10.05;64.82;101033.72;7362255;19;20038;-60
2024/04/16 03:04:26;;;;;;;0.10;0.10;;;;;;;10.05;65.10;101031.13;7366842;19;20679;-60
2024/04/16 03:06:51;;;;;;;0.10;0.10;;;;;;;10.06;65.20;101042.41;7356952;19;20021;-60
2024/04/16 03:09:17;;;;;;;0.10;0.10;;;;;;;9.93;65.44;101023.47;7365276;19;20025;-59
2024/04/16 03:11:42;;;;;;;0.10;0.10;;;;;;;10.02;65.42;101022.47;7361467;19;20131;-60
2024/04/16 03:14:07;;;;;;;0.10;0.10;;;;;;;10.06;65.11;101034.59;7336530;19;20038;-60
2024/04/16 03:16:33;;;;;;;0.10;0.10;;;;;;;10.06;64.99;101035.44;7362774;19;20019;-61
2024/04/16 03:18:59;;;;;;;0.10;0.10;;;;;;;10.05;65.59;101032.88;7363305;19;20011;-60
2024/04/16 03:21:25;;;;;;;0.10;0.10;;;;;;;10.01;65.61;101032.03;7365773;19;20017;-61
2024/04/16 03:23:50;;;;;;;0.10;0.10;;;;;;;10.10;65.47;101042.34;7359846;19;20105;-61
2024/04/16 03:26:16;;;;;;;0.10;0.10;;;;;;;10.11;65.79;101033.63;7364968;19;20027;-59
2024/04/16 03:28:41;;;;;;;0.00;0.00;;;;;;;10.13;65.59;101036.22;7364098;19;20029;-60
2024/04/16 03:31:07;;;;;;;0.10;0.10;;;;;;;10.09;65.67;101029.34;7364528;19;20014;-59
2024/04/16 03:33:32;;;;;;;0.10;0.10;;;;;;;10.17;65.64;101032.66;7361233;19;20044;-60
2024/04/16 03:35:58;;;;;;;0.10;0.10;;;;;;;10.08;65.40;101028.44;7363425;19;20577;-61
2024/04/16 03:38:24;;;;;;;0.10;0.10;;;;;;;10.18;65.40;101036.13;7362754;19;20540;-60
2024/04/16 03:40:57;;;;;;;0.10;0.10;;;;;;;10.10;65.08;101026.69;7355307;19;20060;-60
2024/04/16 03:43:22;;;;;;;0.10;0.10;;;;;;;10.07;65.43;101033.69;7362186;19;20014;-60
2024/04/16 03:45:52;;;;;;;0.10;0.10;;;;;;;10.20;65.40;101042.22;7366274;19;20018;-60
2024/04/16 03:48:17;;;;;;;0.10;0.10;;;;;;;10.19;65.26;101048.28;7358904;19;20565;-61
2024/04/16 03:50:43;;;;;;;0.10;0.10;;;;;;;10.07;65.65;101039.78;7362857;19;20037;-60
2024/04/16 03:53:08;;;;;;;0.10;0.10;;;;;;;10.17;65.65;101057.91;7358062;19;20010;-61
2024/04/16 03:55:36;;;;;;;0.10;0.10;;;;;;;10.13;65.33;101047.50;7361012;19;20014;-60
2024/04/16 03:58:02;;;;;;;0.05;0.05;;;;;;;10.14;65.37;101053.63;7362885;19;20006;-61
2024/04/16 04:03:14;;;;;;;0.10;0.10;;;;;;;10.00;65.76;101032.09;7324712;19;20566;-60
2024/04/16 04:05:39;;;;;;;0.00;0.00;;;;;;;10.11;66.02;101051.91;7362131;19;20034;-61
2024/04/16 04:08:05;;;;;;;0.10;0.10;;;;;;;10.02;65.55;101043.34;7361431;19;20007;-60
2024/04/16 04:10:31;;;;;;;0.10;0.10;;;;;;;10.10;65.62;101063.22;7358796;19;20006;-60
2024/04/16 04:12:57;;;;;;;0.10;0.10;;;;;;;10.09;65.80;101061.50;7359180;19;20360;-60
2024/04/16 04:15:23;;;;;;;0.10;0.10;;;;;;;10.08;65.47;101059.75;7361595;19;20403;-60
2024/04/16 04:17:48;;;;;;;0.10;0.10;;;;;;;10.07;65.66;101067.63;7363420;19;20029;-60
2024/04/16 04:20:14;;;;;;;0.03;0.03;;;;;;;10.06;65.31;101071.97;7364029;19;20614;-60
2024/04/16 04:22:39;;;;;;;0.10;0.10;;;;;;;10.04;65.44;101063.31;7357854;19;20457;-60
2024/04/16 04:25:04;;;;;;;0.10;0.10;;;;;;;9.94;65.72;101050.44;7361873;19;20014;-60
2024/04/16 04:27:30;;;;;;;0.10;0.10;;;;;;;10.00;65.51;101063.38;7358431;19;20018;-61
2024/04/16 04:29:55;;;;;;;0.10;0.10;;;;;;;9.98;65.63;101063.38;7359860;19;20011;-59
2024/04/16 04:32:21;;;;;;;0.10;0.10;;;;;;;9.95;65.61;101063.44;7357325;19;20022;-60
2024/04/16 04:34:46;;;;;;;0.10;0.10;;;;;;;9.95;65.37;101062.59;7362580;19;20006;-59
2024/04/16 04:37:11;;;;;;;0.10;0.10;;;;;;;9.96;65.75;101078.22;7356478;19;21596;-60
2024/04/16 04:39:37;;;;;;;0.03;0.03;;;;;;;9.96;65.83;101075.59;7361909;19;20006;-61
2024/04/16 04:42:02;;;;;;;0.10;0.10;;;;;;;9.96;65.44;101078.22;7364760;19;20009;-60
2024/04/16 04:44:28;;;;;;;0.10;0.10;;;;;;;9.96;65.99;101086.03;7361917;19;20009;-60
2024/04/16 04:46:53;;;;;;;0.10;0.10;;;;;;;9.92;65.81;101073.91;7357946;19;20990;-60
2024/04/16 04:49:18;;;;;;;0.00;0.00;;;;;;;9.94;65.79;101074.78;7360813;19;20010;-59
2024/04/16 04:51:44;;;;;;;0.10;0.10;;;;;;;9.95;65.50;101083.47;7362408;19;20010;-60
2024/04/16 04:54:09;;;;;;;0.10;0.10;;;;;;;9.92;65.52;101073.91;7363059;19;21073;-60
2024/04/16 04:56:34;;;;;;;0.10;0.10;;;;;;;9.93;65.71;101083.47;7363112;19;20005;-61
2024/04/16 04:59:00;;;;;;;0.10;0.10;;;;;;;9.91;66.04;101087.84;7361232;19;20011;-61
2024/04/16 05:01:25;;;;;;;0.10;0.10;;;;;;;9.91;65.77;101085.25;7362764;19;20683;-60
2024/04/16 05:03:51;;;;;;;0.05;0.05;;;;;;;9.92;65.70;101086.97;7361805;19;20082;-59
2024/04/16 05:06:17;;;;;;;0.10;0.10;;;;;;;9.92;65.02;101081.75;7357394;19;20058;-60
2024/04/16 05:08:42;;;;;;;0.10;0.10;;;;;;;9.90;65.19;101077.44;7353319;19;20018;-60
2024/04/16 05:11:07;;;;;;;0.10;0.10;;;;;;;9.91;65.96;101077.41;7359650;19;20582;-60
2024/04/16 05:13:33;;;;;;;0.10;0.10;;;;;;;9.83;65.97;101074.94;7361788;19;20006;-60
2024/04/16 05:15:58;;;;;;;0.10;0.10;;;;;;;9.86;65.81;101080.09;7360636;19;20578;-60
2024/04/16 05:18:23;;;;;;;0.10;0.10;;;;;;;9.89;65.46;101097.47;7357153;19;20018;-59
2024/04/16 05:20:49;;;;;;;0.00;0.00;;;;;;;9.88;66.28;101098.31;7359938;19;20097;-60
2024/04/16 05:23:14;;;;;;;0.10;0.10;;;;;;;9.83;66.02;101094.91;7363073;19;20107;-60
2024/04/16 05:25:40;;;;;;;0.10;0.10;;;;;;;9.84;65.99;101091.44;7355011;19;20002;-60
2024/04/16 05:28:05;;;;;;;0.10;0.10;;;;;;;9.71;65.90;101075.06;7361232;19;20011;-60
2024/04/16 05:30:31;;;;;;;0.10;0.10;;;;;;;9.82;65.79;101095.78;7349928;19;20006;-59
2024/04/16 05:32:56;;;;;;;0.10;0.10;;;;;;;9.82;66.39;101103.63;7360655;19;20026;-60
2024/04/16 05:35:22;;;;;;;0.10;0.10;;;;;;;9.82;66.37;101098.41;7362032;19;20016;-60
2024/04/16 05:37:48;;;;;;;0.10;0.10;;;;;;;9.81;66.44;101101.91;7367962;19;20587;-60
2024/04/16 05:40:16;;;;;;;0.10;0.10;;;;;;;9.83;66.44;101100.13;7364906;19;20014;-59
2024/04/16 05:42:41;;;;;;;;;;;;;;;9.88;64.63;101109.63;7369660;19;20026;-60
2024/04/16 05:45:07;;;;;;;0.10;0.10;;;;;;;9.86;65.78;101113.13;7365353;19;19923;-60
2024/04/16 05:47:32;;;;;;;0.10;0.10;;;;;;;9.86;66.14;101115.75;7367000;19;20025;-61
2024/04/16 05:49:58;;;;;;;0.00;0.00;;;;;;;9.86;65.74;101118.34;7362047;19;20002;-59
2024/04/16 05:52:23;;;;;;;0.10;0.10;;;;;;;9.86;66.04;101126.19;7364921;19;20018;-61
2024/04/16 05:54:49;;;;;;;0.10;0.10;;;;;;;9.85;66.40;101121.84;7364327;19;20015;-60
2024/04/16 05:57:14;;;;;;;0.05;0.05;;;;;;;9.86;66.45;101131.41;7355496;19;20069;-60
2024/04/16 05:59:40;;;;;;;0.00;0.00;;;;;;;9.86;66.44;101131.41;7362426;19;20349;-61
2024/04/16 06:02:05;;;;;;;0.08;0.08;;;;;;;9.85;66.41;101122.72;7366712;19;20151;-60
2024/04/16 06:04:31;;;;;;;0.00;0.00;;;;;;;9.85;66.34;101129.69;7365288;19;20019;-60
2024/04/16 06:06:56;;;;;;;0.10;0.10;;;;;;;9.86;66.34;101131.41;7364789;19;20438;-60
2024/04/16 06:09:21;;;;;;;0.00;0.00;;;;;;;9.88;66.43;101134.84;7366218;19;20596;-60
2024/04/16 06:11:47;;;;;;;0.10;0.10;;;;;;;9.89;66.50;101136.59;7364258;19;20002;-59
2024/04/16 06:14:12;;;;;;;0.10;0.10;;;;;;;9.91;66.74;101140.03;7367638;19;20459;-60
2024/04/16 06:16:38;;;;;;;0.10;0.10;;;;;;;9.94;66.35;101140.00;7360796;19;20619;-59
2024/04/16 06:19:03;;;;;;;0.10;0.10;;;;;;;9.97;66.53;101144.28;7367614;19;20750;-61
2024/04/16 06:21:29;;;;;;;0.10;0.10;;;;;;;9.98;66.56;101146.88;7365812;19;20753;-60
2024/04/16 06:23:54;;;;;;;0.10;0.10;;;;;;;10.02;66.45;101143.34;7367029;19;20015;-61
2024/04/16 06:26:20;;;;;;;0.10;0.10;;;;;;;10.07;66.00;101157.19;7358019;19;20019;-60
2024/04/16 06:28:45;;;;;;;0.10;0.10;;;;;;;10.10;66.05;101158.91;7367208;19;20010;-61
2024/04/16 06:31:10;;;;;;;0.10;0.10;;;;;;;10.11;66.28;101152.81;7359157;19;20010;-60
2024/04/16 06:33:37;;;;;;;0.10;0.10;;;;;;;10.18;65.79;101166.63;7364324;19;20002;-60
2024/04/16 06:36:06;;;;;;;0.03;0.03;;;;;;;10.12;65.51;101142.34;7366412;19;20011;-60
2024/04/16 06:38:32;;;;;;;0.10;0.10;;;;;;;10.15;65.59;101144.06;7362192;19;20019;-60
2024/04/16 06:40:59;;;;;;;0.10;0.10;;;;;;;10.32;65.53;101168.19;7368296;19;20048;-59
2024/04/16 06:43:26;;;;;;;0.10;0.10;;;;;;;10.33;65.49;101164.69;7366645;19;20011;-60
2024/04/16 06:45:51;;;;;;;0.10;0.10;;;;;;;10.39;65.30;101169.84;7356444;19;20018;-60
2024/04/16 06:48:16;;;;;;;0.10;0.10;;;;;;;10.31;65.36;101144.75;7365228;19;20504;-60
2024/04/16 06:50:49;;;;;;;0.10;0.10;;;;;;;10.50;65.06;101159.25;7362909;19;20014;-60
2024/04/16 06:53:15;;;;;;;0.10;0.10;;;;;;;10.38;64.91;101146.34;7362203;19;20049;-61
2024/04/16 06:55:40;;;;;;;0.03;0.03;;;;;;;10.50;64.88;101182.75;7358215;19;20018;-60
2024/04/16 06:58:06;;;;;;;0.05;0.05;;;;;;;10.51;65.05;101181.84;7363365;19;20035;-60
2024/04/16 07:00:32;;;;;;;0.10;0.10;;;;;;;10.51;65.02;101183.59;7334020;19;20514;-60
2024/04/16 07:02:58;;;;;;;0.10;0.10;;;;;;;10.52;65.19;101188.81;7359772;19;20006;-59
2024/04/16 07:05:23;;;;;;;0.10;0.10;;;;;;;10.54;65.30;101188.75;7359874;19;20006;-60
2024/04/16 07:07:49;;;;;;;0.10;0.10;;;;;;;10.54;65.56;101188.75;7363108;19;20022;-60
2024/04/16 07:10:14;;;;;;;0.10;0.10;;;;;;;10.56;65.40;101198.31;7361610;19;20695;-60
2024/04/16 07:12:40;;;;;;;0.10;0.10;;;;;;;10.59;65.47;101202.63;7363766;19;20504;-60
2024/04/16 07:15:05;;;;;;;0.10;0.10;;;;;;;10.61;65.53;101206.09;7365171;19;20032;-59
2024/04/16 07:17:31;;;;;;;0.00;0.00;;;;;;;10.62;65.43;101216.50;7365016;19;20010;-60
2024/04/16 07:19:56;;;;;;;0.10;0.10;;;;;;;10.63;64.67;101212.13;7366441;19;20018;-60
2024/04/16 07:22:22;;;;;;;0.03;0.03;;;;;;;10.64;65.14;101214.75;7366119;19;20026;-60
2024/04/16 07:24:49;;;;;;;0.10;0.10;;;;;;;10.65;65.04;101213.88;7365618;19;20018;-60
2024/04/16 07:27:15;;;;;;;0.00;0.00;;;;;;;10.63;65.12;101210.38;7358740;19;20021;-59
2024/04/16 07:29:42;;;;;;;0.00;0.00;;;;;;;10.68;64.99;101212.94;7362212;19;20011;-60
2024/04/16 07:32:07;;;;;;;0.10;0.10;;;;;;;10.58;65.45;101191.31;7367901;19;20022;-60
2024/04/16 07:34:33;;;;;;;0.10;0.10;;;;;;;10.73;65.10;101220.72;7364489;19;20796;-60
2024/04/16 07:36:58;;;;;;;0.10;0.10;;;;;;;10.75;64.89;101213.72;7348534;19;20018;-60
2024/04/16 07:39:23;;;;;;;0.10;0.10;;;;;;;10.77;64.44;101206.72;7357177;19;20050;-61
2024/04/16 07:41:49;;;;;;;0.10;0.10;;;;;;;10.76;64.82;101205.84;7360892;19;20021;-59
2024/04/16 07:44:16;;;;;;;0.10;0.10;;;;;;;10.79;64.17;101212.78;7364274;19;20017;-60
2024/04/16 07:46:42;;;;;;;0.10;0.10;;;;;;;10.79;64.57;101218.00;7365914;19;20021;-59
2024/04/16 07:49:07;;;;;;;0.08;0.08;;;;;;;10.78;64.11;101211.91;7364205;19;20006;-60
2024/04/16 07:51:32;;;;;;;0.10;0.10;;;;;;;10.78;64.53;101214.53;7363183;19;20014;-60
2024/04/16 07:53:58;;;;;;;0.10;0.10;;;;;;;10.81;64.37;101213.63;7364166;19;20011;-60
2024/04/16 07:56:23;;;;;;;0.10;0.10;;;;;;;10.85;64.66;101217.94;7360778;19;20010;-59
2024/04/16 07:58:49;;;;;;;0.10;0.10;;;;;;;10.88;64.47;101223.94;7363639;19;20017;-60
2024/04/16 08:01:15;;;;;;;0.10;0.10;;;;;;;10.93;64.39;101226.50;7364388;19;20006;-60
2024/04/16 08:03:41;;;;;;;0.10;0.10;;;;;;;10.98;64.36;101229.88;7364758;19;20469;-59
2024/04/16 08:06:07;;;;;;;0.10;0.10;;;;;;;11.02;64.80;101234.19;7360500;19;20022;-60
2024/04/16 08:08:32;;;;;;;0.10;0.10;;;;;;;11.08;64.44;101228.84;7361926;19;20038;-61
2024/04/16 08:11:10;;;;;;;0.10;0.10;;;;;;;11.18;64.30;101238.28;7363534;19;20006;-59
2024/04/16 08:13:35;;;;;;;;;;;;;;;11.27;64.24;101228.56;7365780;19;20360;-59
2024/04/16 08:16:01;;;;;;;0.10;0.10;;;;;;;11.30;64.06;101242.41;7362944;19;19926;-59
2024/04/16 08:18:26;;;;;;;0.10;0.10;;;;;;;11.37;64.17;101240.59;7361410;19;20402;-61
2024/04/16 08:20:51;;;;;;;0.10;0.10;;;;;;;11.44;63.98;101243.06;7361876;19;20010;-60
2024/04/16 08:23:18;;;;;;;0.13;0.13;;;;;;;11.51;63.59;101238.59;7362637;19;20643;-60
2024/04/16 08:25:44;;;;;;;0.00;0.00;;;;;;;11.53;63.88;101236.81;7360766;19;20010;-60
2024/04/16 08:28:09;;;;;;;0.10;0.10;;;;;;;11.58;63.88;101248.03;7357339;19;20014;-60
2024/04/16 08:30:35;;;;;;;0.05;0.05;;;;;;;11.61;63.33;101240.16;7364523;19;20006;-60
2024/04/16 08:33:00;;;;;;;0.10;0.10;;;;;;;11.61;63.61;101237.53;7360315;19;20014;-60
2024/04/16 08:35:27;;;;;;;0.10;0.10;;;;;;;11.65;63.39;101241.81;7359880;19;20006;-60
2024/04/16 08:37:53;;;;;;;0.10;0.10;;;;;;;11.67;63.33;101247.88;7358922;19;20505;-61
2024/04/16 08:40:19;;;;;;;0.10;0.10;;;;;;;11.72;63.52;101241.72;7364274;19;20007;-60
2024/04/16 08:42:45;;;;;;;0.10;0.10;;;;;;;11.77;63.21;101238.13;7359302;19;20006;-60
2024/04/16 08:45:10;;;;;;;0.10;0.10;;;;;;;11.70;63.20;101229.50;7362955;19;20479;-59
2024/04/16 08:47:37;;;;;;;0.10;0.10;;;;;;;11.88;63.58;101245.78;7361545;19;20027;-60
2024/04/16 08:50:04;;;;;;;0.05;0.05;;;;;;;12.01;63.76;101249.88;7364104;19;20337;-60
2024/04/16 08:52:32;;;;;;;0.10;0.10;;;;;;;12.15;63.65;101255.69;7358640;19;20019;-60
2024/04/16 08:54:59;;;;;;;0.10;0.10;;;;;;;12.29;63.10;101244.09;7361749;19;20011;-60
2024/04/16 08:57:28;;;;;;;0.10;0.10;;;;;;;12.53;62.88;101248.81;7357409;19;20019;-61
2024/04/16 08:59:53;;;;;;;0.10;0.10;;;;;;;12.69;62.52;101250.19;7361543;19;20062;-60
2024/04/16 09:02:19;;;;;;;0.00;0.00;;;;;;;12.81;61.96;101254.28;7362189;19;20062;-60
2024/04/16 09:04:47;;;;;;;0.10;0.10;;;;;;;12.89;62.04;101252.34;7361360;19;20014;-61
2024/04/16 09:07:13;;;;;;;0.10;0.10;;;;;;;12.98;61.61;101256.53;7359774;19;20010;-60
2024/04/16 09:09:39;;;;;;;0.10;0.10;;;;;;;13.08;61.29;101263.25;7366638;19;20736;-60
2024/04/16 09:12:04;;;;;;;0.10;0.10;;;;;;;13.22;61.94;101258.56;7369239;19;20011;-62
2024/04/16 09:14:30;;;;;;;0.10;0.10;;;;;;;13.39;61.78;101267.78;7366003;19;20340;-61
2024/04/16 09:16:56;;;;;;;0.10;0.10;;;;;;;13.55;61.18;101268.25;7368338;19;20019;-60
2024/04/16 09:19:26;;;;;;;0.20;0.20;;;;;;;13.68;60.82;101267.88;7370764;19;21086;-60
2024/04/16 09:21:57;;;;;;;0.10;0.10;;;;;;;13.82;60.55;101250.91;7367240;19;20011;-61
2024/04/16 09:24:22;;;;;;;0.10;0.10;;;;;;;14.01;60.20;101267.88;7371092;19;20006;-61
2024/04/16 09:26:48;;;;;;;0.08;0.08;;;;;;;14.16;59.90;101266.59;7367309;19;20014;-60
2024/04/16 09:29:23;;;;;;;0.10;0.10;;;;;;;14.36;60.44;101273.91;7366921;19;20014;-60
2024/04/16 09:31:59;;;;;;;0.10;0.10;;;;;;;14.53;60.16;101262.00;7366193;19;20749;-61
2024/04/16 09:34:24;;;;;;;0.10;0.10;;;;;;;14.63;58.73;101262.56;7363147;19;20684;-61
2024/04/16 09:36:50;;;;;;;0.10;0.10;;;;;;;14.83;58.71;101263.72;7366324;19;20023;-60
2024/04/16 09:39:19;;;;;;;0.10;0.10;;;;;;;15.15;59.10;101273.22;7368424;19;20010;-61
2024/04/16 09:41:48;;;;;;;0.10;0.10;;;;;;;15.27;58.30;101250.00;7368786;19;20013;-61
2024/04/16 09:44:17;;;;;;;0.20;0.20;;;;;;;15.75;57.92;101278.22;7366359;19;20015;-61
2024/04/16 09:46:47;;;;;;;0.10;0.10;;;;;;;16.04;57.90;101273.72;7365652;19;20010;-60
2024/04/16 09:49:14;;;;;;;0.10;0.10;;;;;;;16.24;56.14;101273.84;7370325;19;20010;-61
2024/04/16 09:51:40;;;;;;;0.10;0.10;;;;;;;16.50;56.30;101277.28;7365911;19;20057;-61
2024/04/16 09:54:10;;;;;;;0.20;0.20;;;;;;;16.75;55.41;101283.34;7367349;19;20564;-60
2024/04/16 09:56:37;;;;;;;0.10;0.10;;;;;;;16.88;53.94;101277.56;7367925;19;20039;-60
2024/04/16 09:59:05;;;;;;;0.10;0.10;;;;;;;16.98;52.99;101278.94;7367659;19;20066;-61
2024/04/16 10:01:32;;;;;;;0.10;0.10;;;;;;;17.06;53.15;101271.56;7367787;19;20018;-60
2024/04/16 10:03:58;;;;;;;0.15;0.15;;;;;;;17.16;53.40;101257.09;7366742;19;20806;-60
2024/04/16 10:06:23;;;;;;;0.10;0.10;;;;;;;17.48;52.38;101273.34;7365408;19;20021;-60
2024/04/16 10:08:49;;;;;;;0.10;0.10;;;;;;;17.63;52.29;101273.56;7366470;19;20014;-61
2024/04/16 10:11:16;;;;;;;0.10;0.10;;;;;;;17.83;52.27;101280.66;7364020;19;20018;-61
2024/04/16 10:13:42;;;;;;;0.10;0.10;;;;;;;17.96;51.42;101275.69;7367076;19;20090;-60
2024/04/16 10:16:17;;;;;;;0.10;0.10;;;;;;;18.32;54.10;101277.63;7366652;19;20089;-61
2024/04/16 10:18:52;;;;;;;0.10;0.10;;;;;;;18.59;53.89;101275.47;7366198;19;20011;-61
2024/04/16 10:21:25;;;;;;;0.10;0.10;;;;;;;18.88;52.83;101282.91;7363706;19;20022;-62
2024/04/16 10:24:01;;;;;;;0.10;0.10;;;;;;;19.17;52.18;101285.97;7364197;19;20015;-60
2024/04/16 10:26:29;;;;;;;0.10;0.10;;;;;;;19.21;48.78;101290.19;7364008;19;20010;-61
2024/04/16 10:28:56;;;;;;;0.10;0.10;;;;;;;19.43;49.53;101285.50;7368769;19;20013;-59
2024/04/16 10:31:33;;;;;;;0.20;0.20;;;;;;;19.63;50.60;101276.59;7363712;19;20006;-61
2024/04/16 10:34:02;;;;;;;0.10;0.10;;;;;;;19.91;49.52;101297.19;7366989;19;20069;-60
2024/04/16 10:36:27;;;;;;;0.20;0.20;;;;;;;20.02;45.70;101277.22;7360537;19;20003;-61
2024/04/16 10:38:53;;;;;;;0.10;0.10;;;;;;;20.37;44.81;101292.09;7366049;19;20007;-61
2024/04/16 10:41:28;;;;;;;0.10;0.10;;;;;;;20.72;48.51;101289.34;7361115;19;20023;-61
2024/04/16 10:43:55;;;;;;;0.10;0.10;;;;;;;20.89;44.43;101302.56;7361695;19;20010;-60
2024/04/16 10:46:22;;;;;;;;;;;;;;;21.30;52.89;101299.34;7365808;19;20046;-60
2024/04/16 10:48:47;;;;;;;0.17;0.17;;;;;;;21.36;44.79;101296.34;7364886;19;20509;-61
2024/04/16 10:51:13;;;;;;;0.10;0.10;;;;;;;21.52;44.86;101290.13;7362993;19;20003;-60
2024/04/16 10:53:38;;;;;;;0.10;0.10;;;;;;;21.80;44.49;101295.53;7359544;19;20003;-61
2024/04/16 10:56:05;;;;;;;0.15;0.15;;;;;;;22.12;43.03;101300.72;7366016;19;20015;-60
2024/04/16 10:58:34;;;;;;;0.10;0.10;;;;;;;22.49;44.00;101299.25;7361074;19;20082;-61
2024/04/16 11:01:00;;;;;;;0.10;0.10;;;;;;;22.72;42.32;101301.31;7361878;19;20010;-60
2024/04/16 11:03:26;;;;;;;0.15;0.15;;;;;;;22.97;41.18;101302.44;7361909;19;20011;-60
2024/04/16 11:05:51;;;;;;;0.10;0.10;;;;;;;23.30;40.32;101307.34;7363827;19;20018;-61
2024/04/16 11:08:17;;;;;;;0.20;0.20;;;;;;;23.59;40.26;101313.41;7364722;19;20070;-61
2024/04/16 11:10:49;;;;;;;0.10;0.10;;;;;;;23.79;41.29;101310.25;7364702;19;20014;-61
2024/04/16 11:13:15;;;;;;;0.10;0.10;;;;;;;24.16;38.61;101317.53;7367094;19;20014;-60
2024/04/16 11:15:40;;;;;;;0.10;0.10;;;;;;;24.45;39.60;101304.84;7364175;19;20028;-61
2024/04/16 11:18:06;;;;;;;0.10;0.10;;;;;;;24.74;38.43;101302.75;7365002;19;20482;-60
2024/04/16 11:20:32;;;;;;;0.17;0.17;;;;;;;25.04;38.36;101304.97;7361127;19;20007;-61
2024/04/16 11:22:58;;;;;;;0.10;0.10;;;;;;;25.13;37.46;101307.00;7367214;19;20006;-61
2024/04/16 11:25:29;;;;;;;0.10;0.10;;;;;;;25.16;37.50;101319.28;7363238;19;20018;-61
2024/04/16 11:27:55;;;;;;;0.10;0.10;;;;;;;24.99;37.68;101310.69;7367217;19;20031;-60